Saint Marys, Maryland
Current Conditions -  °F | °C
As of 10:53 PM on Saturday 22 Nov 2014 (Local Time) from KNUI Reporting Station
Clear Clear  
Wind Chill: 38°   Ceiling: Unl
Heat Index: 42°   Visibility: 10mi
Dew Point: 21°   Wind: 7mph
Humidity: 43%   Direction: 200°SSW
Pressure: 30.31"   Gusts: NA
Location:  38.1867°N, 76.4348°W
Report Text: KNUI 230353Z AUTO 20006KT 10SM CLR 06/M06 A3031 RMK AO2 SLP262 T00561061
Loading
Personal Weather Stations






























Interactive Weather Map New forecast layout! Learn more

10-Day Weather Forecast

Advertisements
Track Severe Weather on mobile